createdAt,value
2023-02-25T00:01:21.811Z,0.20
2023-02-25T00:03:54.329Z,0.27
2023-02-25T00:06:23.757Z,2.63
2023-02-25T00:08:53.118Z,1.13
2023-02-25T00:11:22.062Z,0.50
2023-02-25T00:13:50.478Z,4.60
2023-02-25T00:16:19.329Z,0.20
2023-02-25T00:18:48.824Z,0.20
2023-02-25T00:21:19.589Z,3.00
2023-02-25T00:23:49.468Z,0.33
2023-02-25T00:26:19.021Z,0.13
2023-02-25T00:28:48.396Z,0.93
2023-02-25T00:31:18.421Z,0.50
2023-02-25T00:33:46.798Z,0.20
2023-02-25T00:36:18.993Z,1.23
2023-02-25T00:38:49.394Z,0.10
2023-02-25T00:41:20.126Z,0.10
2023-02-25T00:43:51.414Z,5.67
2023-02-25T00:46:20.273Z,0.10
2023-02-25T00:48:48.721Z,0.20
2023-02-25T00:51:18.686Z,0.23
2023-02-25T00:53:48.670Z,0.13
2023-02-25T00:56:18.246Z,0.20
2023-02-25T00:58:47.761Z,1.10
2023-02-25T01:01:21.018Z,6.80
2023-02-25T01:03:50.743Z,0.20
2023-02-25T01:06:19.501Z,0.20
2023-02-25T01:08:49.539Z,0.20
2023-02-25T01:11:21.180Z,0.20
2023-02-25T01:13:51.153Z,0.20
2023-02-25T01:16:22.384Z,0.20
2023-02-25T01:18:53.679Z,0.30
2023-02-25T01:21:27.242Z,0.20
2023-02-25T01:24:01.910Z,0.23
2023-02-25T01:26:32.946Z,0.10
2023-02-25T01:29:01.441Z,0.40
2023-02-25T01:31:30.294Z,0.30
2023-02-25T01:33:59.123Z,0.50
2023-02-25T01:36:27.442Z,2.03
2023-02-25T01:38:57.158Z,0.20
2023-02-25T01:41:25.589Z,0.20
2023-02-25T01:44:13.413Z,4.40
2023-02-25T01:46:43.245Z,0.20
2023-02-25T01:49:16.202Z,3.63
2023-02-25T01:51:47.165Z,0.20
2023-02-25T01:54:17.404Z,20.47
2023-02-25T01:56:49.420Z,0.20
2023-02-25T01:59:19.671Z,0.20
2023-02-25T02:01:48.276Z,0.10
2023-02-25T02:04:19.292Z,0.23
2023-02-25T02:06:50.344Z,0.20
2023-02-25T02:09:22.816Z,0.87
2023-02-25T02:11:52.377Z,0.20
2023-02-25T02:14:24.817Z,0.17
2023-02-25T02:17:20.795Z,1.00
2023-02-25T02:20:14.140Z,0.80
2023-02-25T02:22:50.324Z,0.20
2023-02-25T02:25:46.573Z,0.30
2023-02-25T02:28:53.485Z,0.20
2023-02-25T02:31:34.393Z,0.30
2023-02-25T02:34:17.816Z,0.47
2023-02-25T02:36:56.431Z,1.37
2023-02-25T02:39:30.663Z,0.47
2023-02-25T02:42:05.494Z,0.10
2023-02-25T02:44:42.229Z,0.73
2023-02-25T02:47:18.005Z,0.20
2023-02-25T02:49:49.346Z,0.33
2023-02-25T02:52:22.419Z,0.30
2023-02-25T02:54:56.091Z,0.43
2023-02-25T02:57:28.302Z,0.20
2023-02-25T03:00:00.106Z,0.10
2023-02-25T03:02:34.611Z,0.30
2023-02-25T03:05:07.373Z,4.70
2023-02-25T03:07:41.625Z,0.10
2023-02-25T03:10:16.318Z,2.47
2023-02-25T03:12:44.634Z,0.30
2023-02-25T03:15:14.832Z,9.53
2023-02-25T03:17:51.089Z,0.50
2023-02-25T03:20:25.081Z,1.60
2023-02-25T03:22:57.613Z,0.10
2023-02-25T03:25:30.855Z,0.50
2023-02-25T03:28:04.146Z,3.80
2023-02-25T03:30:39.017Z,0.30
2023-02-25T03:33:14.370Z,0.80
2023-02-25T03:35:45.124Z,0.20
2023-02-25T03:38:20.464Z,1.50
2023-02-25T03:40:50.517Z,0.40
2023-02-25T03:43:24.346Z,4.03
2023-02-25T03:45:53.535Z,0.10
2023-02-25T03:48:27.055Z,0.10
2023-02-25T03:51:00.755Z,0.10
2023-02-25T03:53:32.845Z,0.87
2023-02-25T03:56:13.566Z,0.10
2023-02-25T03:58:45.580Z,0.50
2023-02-25T04:01:18.057Z,13.47
2023-02-25T04:03:48.157Z,0.20
2023-02-25T04:06:16.999Z,0.20
2023-02-25T04:08:45.270Z,0.27
2023-02-25T04:11:13.657Z,1.50
2023-02-25T04:13:44.120Z,0.40
2023-02-25T04:16:14.127Z,0.20
2023-02-25T04:18:42.990Z,0.10
2023-02-25T04:21:27.699Z,0.33
2023-02-25T04:23:55.895Z,12.33
2023-02-25T04:26:24.857Z,7.13
2023-02-25T04:28:53.264Z,11.73
2023-02-25T04:31:22.187Z,11.93
2023-02-25T04:33:50.736Z,8.13
2023-02-25T04:36:28.451Z,15.63
2023-02-25T04:38:57.465Z,10.77
2023-02-25T04:41:29.017Z,4.33
2023-02-25T04:43:57.259Z,6.77
2023-02-25T04:46:26.494Z,8.83
2023-02-25T04:48:54.911Z,8.23
2023-02-25T04:51:23.192Z,6.70
2023-02-25T04:53:53.117Z,8.67
2023-02-25T04:56:21.601Z,7.83
2023-02-25T04:58:50.404Z,12.13
2023-02-25T05:01:18.888Z,10.67
2023-02-25T05:03:47.461Z,9.83
2023-02-25T05:06:15.732Z,9.03
2023-02-25T05:08:46.618Z,7.77
2023-02-25T05:11:16.245Z,11.47
2023-02-25T05:13:44.517Z,9.47
2023-02-25T05:16:16.593Z,11.13
2023-02-25T05:18:45.940Z,8.40
2023-02-25T05:21:16.356Z,9.10
2023-02-25T05:23:45.804Z,9.73
2023-02-25T05:26:17.480Z,7.43
2023-02-25T05:28:45.827Z,8.27
2023-02-25T05:31:14.575Z,12.37
2023-02-25T05:33:43.517Z,9.50
2023-02-25T05:36:14.598Z,13.27
2023-02-25T05:38:43.330Z,8.57
2023-02-25T05:41:12.928Z,16.77
2023-02-25T05:43:45.248Z,10.27
2023-02-25T05:46:14.560Z,13.60
2023-02-25T05:48:45.990Z,11.40
2023-02-25T05:51:15.697Z,12.90
2023-02-25T05:53:44.810Z,9.53
2023-02-25T05:56:15.538Z,6.97
2023-02-25T05:58:46.747Z,11.03
2023-02-25T06:01:17.364Z,8.30
2023-02-25T06:03:47.583Z,14.53
2023-02-25T06:06:17.906Z,11.47
2023-02-25T06:08:46.173Z,8.30
2023-02-25T06:11:19.576Z,10.53
2023-02-25T06:13:50.930Z,10.77
2023-02-25T06:16:19.562Z,14.97
2023-02-25T06:18:48.886Z,15.87
2023-02-25T06:21:17.390Z,6.87
2023-02-25T06:23:46.256Z,9.67
2023-02-25T06:26:16.216Z,9.30
2023-02-25T06:28:44.950Z,11.67
2023-02-25T06:31:16.697Z,7.07
2023-02-25T06:33:45.548Z,8.53
2023-02-25T06:36:15.540Z,8.13
2023-02-25T06:38:46.247Z,8.90
2023-02-25T06:41:16.670Z,27.20
2023-02-25T06:43:45.948Z,26.60
2023-02-25T06:46:16.185Z,17.33
2023-02-25T06:48:44.554Z,11.37
2023-02-25T06:51:13.131Z,14.03
2023-02-25T06:53:42.949Z,17.73
2023-02-25T06:56:13.011Z,9.93
2023-02-25T06:58:41.915Z,10.60
2023-02-25T07:01:11.408Z,8.53
2023-02-25T07:03:41.054Z,9.80
2023-02-25T07:06:09.920Z,7.17
2023-02-25T07:08:38.785Z,7.53
2023-02-25T07:11:15.532Z,8.90
2023-02-25T07:13:49.366Z,12.40
2023-02-25T07:16:18.057Z,7.30
2023-02-25T07:18:48.723Z,7.93
2023-02-25T07:21:17.929Z,10.83
2023-02-25T07:23:47.055Z,4.87
2023-02-25T07:26:16.250Z,8.13
2023-02-25T07:28:45.133Z,9.30
2023-02-25T07:31:15.421Z,9.33
2023-02-25T07:33:44.084Z,8.03
2023-02-25T07:36:14.354Z,13.37
2023-02-25T07:38:42.892Z,8.77
2023-02-25T07:41:13.182Z,6.10
2023-02-25T07:43:41.449Z,11.47
2023-02-25T07:46:10.403Z,11.00
2023-02-25T07:48:39.228Z,6.00
2023-02-25T07:51:08.857Z,8.83
2023-02-25T07:53:39.116Z,12.27
2023-02-25T07:56:08.527Z,10.07
2023-02-25T07:58:37.280Z,8.70
2023-02-25T08:01:09.158Z,9.90
2023-02-25T08:03:38.501Z,5.90
2023-02-25T08:06:09.028Z,9.20
2023-02-25T08:08:38.891Z,6.37
2023-02-25T08:11:08.595Z,13.73
2023-02-25T08:13:37.610Z,9.93
2023-02-25T08:16:06.641Z,10.17
2023-02-25T08:18:35.179Z,6.00
2023-02-25T08:21:04.463Z,6.27
2023-02-25T08:23:33.052Z,9.67
2023-02-25T08:26:03.955Z,7.20
2023-02-25T08:28:34.454Z,6.60
2023-02-25T08:31:05.489Z,9.20
2023-02-25T08:33:33.792Z,10.27
2023-02-25T08:36:09.610Z,11.93
2023-02-25T08:38:39.182Z,8.60
2023-02-25T08:41:09.373Z,8.73
2023-02-25T08:43:38.770Z,9.03
2023-02-25T08:46:07.388Z,12.50
2023-02-25T08:48:36.185Z,10.63
2023-02-25T08:51:08.464Z,12.27
2023-02-25T08:53:38.685Z,10.03
2023-02-25T08:56:10.506Z,10.93
2023-02-25T08:58:42.536Z,12.70
2023-02-25T09:01:13.069Z,13.37
2023-02-25T09:03:52.817Z,11.30
2023-02-25T09:06:22.740Z,10.43
2023-02-25T09:08:51.371Z,6.87
2023-02-25T09:11:21.349Z,7.77
2023-02-25T09:13:49.904Z,9.23
2023-02-25T09:16:19.198Z,11.67
2023-02-25T09:18:48.254Z,11.90
2023-02-25T09:21:16.553Z,14.43
2023-02-25T09:23:44.838Z,10.50
2023-02-25T09:26:13.290Z,10.03
2023-02-25T09:28:43.055Z,8.83
2023-02-25T09:31:11.676Z,12.70
2023-02-25T09:33:42.783Z,9.23
2023-02-25T09:36:12.792Z,10.27
2023-02-25T09:38:42.749Z,13.17
2023-02-25T09:41:23.539Z,6.37
2023-02-25T09:44:02.804Z,13.17
2023-02-25T09:46:33.739Z,14.87
2023-02-25T09:49:07.219Z,12.27
2023-02-25T09:51:39.086Z,11.23
2023-02-25T09:54:17.672Z,9.87
2023-02-25T09:56:46.240Z,14.50
2023-02-25T09:59:19.092Z,10.17
2023-02-25T10:01:50.837Z,8.90
2023-02-25T10:04:31.458Z,18.17
2023-02-25T10:07:07.614Z,8.60
2023-02-25T10:09:45.261Z,10.33
2023-02-25T10:12:25.660Z,12.63
2023-02-25T10:15:21.974Z,7.73
2023-02-25T10:18:05.481Z,10.43
2023-02-25T10:20:51.593Z,15.47
2023-02-25T10:23:35.573Z,14.57
2023-02-25T10:26:10.748Z,11.20
2023-02-25T10:28:41.920Z,15.10
2023-02-25T10:31:17.067Z,12.30
2023-02-25T10:33:47.758Z,13.47
2023-02-25T10:36:18.689Z,9.07
2023-02-25T10:38:49.909Z,9.97
2023-02-25T10:41:19.032Z,11.97
2023-02-25T10:43:47.503Z,13.80
2023-02-25T10:46:20.895Z,14.00
2023-02-25T10:48:56.638Z,9.67
2023-02-25T10:51:27.479Z,12.27
2023-02-25T10:54:05.472Z,15.37
2023-02-25T10:56:40.304Z,13.77
2023-02-25T10:59:23.564Z,11.73
2023-02-25T11:01:54.606Z,11.90
2023-02-25T11:04:29.045Z,11.10
2023-02-25T11:06:57.396Z,9.67
2023-02-25T11:09:36.991Z,11.47
2023-02-25T11:12:19.862Z,18.17
2023-02-25T11:14:48.153Z,14.93
2023-02-25T11:17:21.287Z,11.77
2023-02-25T11:19:53.519Z,10.93
2023-02-25T11:22:23.689Z,13.87
2023-02-25T11:24:59.727Z,9.93
2023-02-25T11:27:37.835Z,12.73
2023-02-25T11:30:10.031Z,10.67
2023-02-25T11:32:44.469Z,16.63
2023-02-25T11:35:19.239Z,13.27
2023-02-25T11:37:49.117Z,13.70
2023-02-25T11:40:24.252Z,10.03
2023-02-25T11:43:03.472Z,11.30
2023-02-25T11:45:34.172Z,12.03
2023-02-25T11:48:05.414Z,9.73
2023-02-25T11:50:38.315Z,11.00
2023-02-25T11:53:20.717Z,12.50
2023-02-25T11:56:00.399Z,7.73
2023-02-25T11:58:38.053Z,7.70
2023-02-25T12:01:17.161Z,9.63
2023-02-25T12:04:12.526Z,6.03
2023-02-25T12:06:58.151Z,8.37
2023-02-25T12:10:11.252Z,7.73
2023-02-25T12:13:11.090Z,10.63
2023-02-25T12:16:18.133Z,10.77
2023-02-25T12:19:43.793Z,6.20
2023-02-25T12:22:45.270Z,10.77
2023-02-25T12:25:23.602Z,8.17
2023-02-25T12:28:29.999Z,8.07
2023-02-25T12:31:30.673Z,5.73
2023-02-25T12:34:34.246Z,6.83
2023-02-25T12:37:25.106Z,8.50
2023-02-25T12:40:06.549Z,11.13
2023-02-25T12:42:46.140Z,11.30
2023-02-25T12:45:39.679Z,5.40
2023-02-25T12:48:38.542Z,10.70
2023-02-25T12:51:23.269Z,10.73
2023-02-25T12:53:59.551Z,14.83
2023-02-25T12:56:56.689Z,9.83
2023-02-25T12:59:52.039Z,10.70
2023-02-25T13:02:36.859Z,8.00
2023-02-25T13:05:26.813Z,3.93
2023-02-25T13:08:21.647Z,5.03
2023-02-25T13:11:05.251Z,5.67
2023-02-25T13:14:05.137Z,4.63
2023-02-25T13:16:50.392Z,6.43
2023-02-25T13:19:33.414Z,6.90
2023-02-25T13:22:13.412Z,3.60
2023-02-25T13:24:49.090Z,2.90
2023-02-25T13:27:57.115Z,3.13
2023-02-25T13:30:37.145Z,2.63
2023-02-25T13:33:29.684Z,6.50
2023-02-25T13:36:09.265Z,3.00
2023-02-25T13:38:56.950Z,6.63
2023-02-25T13:41:47.673Z,5.60
2023-02-25T13:44:51.635Z,3.97
2023-02-25T13:47:34.385Z,6.30
2023-02-25T13:50:34.848Z,4.43
2023-02-25T13:53:20.907Z,5.20
2023-02-25T13:56:16.503Z,6.27
2023-02-25T13:59:03.203Z,5.77
2023-02-25T14:01:49.431Z,4.37
2023-02-25T14:05:05.506Z,4.90
2023-02-25T14:08:04.992Z,5.67
2023-02-25T14:10:53.884Z,2.80
2023-02-25T14:13:49.935Z,5.80
2023-02-25T14:16:42.060Z,10.20
2023-02-25T14:19:28.945Z,6.77
2023-02-25T14:22:28.520Z,6.47
2023-02-25T14:25:16.294Z,7.67
2023-02-25T14:28:00.047Z,4.63
2023-02-25T14:30:42.463Z,4.20
2023-02-25T14:33:32.746Z,6.40
2023-02-25T14:36:16.615Z,6.00
2023-02-25T14:39:13.979Z,7.73
2023-02-25T14:41:54.168Z,4.63
2023-02-25T14:44:34.464Z,4.53
2023-02-25T14:47:09.994Z,5.83
2023-02-25T14:49:44.227Z,2.93
2023-02-25T14:52:32.711Z,5.27
2023-02-25T14:55:39.643Z,7.33
2023-02-25T14:58:38.846Z,4.73
2023-02-25T15:01:38.749Z,3.50
2023-02-25T15:04:39.051Z,6.23
2023-02-25T15:07:31.560Z,6.27
2023-02-25T15:10:28.225Z,4.70
2023-02-25T15:13:26.512Z,5.90
2023-02-25T15:16:28.416Z,4.80
2023-02-25T15:19:39.906Z,4.77
2023-02-25T15:22:23.988Z,5.70
2023-02-25T15:24:54.029Z,5.20
2023-02-25T15:27:46.275Z,5.53
2023-02-25T15:30:16.533Z,6.23
2023-02-25T15:33:07.229Z,4.63
2023-02-25T15:36:26.771Z,6.60
2023-02-25T15:38:56.688Z,5.47
2023-02-25T15:41:46.730Z,5.30
2023-02-25T15:44:39.730Z,3.20
2023-02-25T15:47:27.668Z,4.67
2023-02-25T15:49:58.425Z,5.07
2023-02-25T15:52:54.509Z,3.83
2023-02-25T15:55:50.298Z,6.33
2023-02-25T15:58:44.553Z,4.33
2023-02-25T16:01:30.890Z,5.70
2023-02-25T16:03:59.363Z,8.03
2023-02-25T16:06:33.758Z,6.83
2023-02-25T16:09:08.886Z,6.73
2023-02-25T16:11:46.642Z,6.33
2023-02-25T16:14:20.490Z,5.43
2023-02-25T16:16:53.085Z,10.10
2023-02-25T16:19:25.258Z,3.97
2023-02-25T16:21:57.051Z,5.87
2023-02-25T16:24:28.165Z,5.10
2023-02-25T16:27:01.554Z,4.80
2023-02-25T16:29:46.758Z,4.70
2023-02-25T16:32:26.547Z,7.37
2023-02-25T16:34:59.910Z,6.40
2023-02-25T16:37:37.206Z,7.90
2023-02-25T16:40:15.002Z,6.27
2023-02-25T16:42:43.466Z,28.50
2023-02-25T16:45:25.283Z,8.13
2023-02-25T16:48:00.110Z,7.97
2023-02-25T16:50:31.936Z,10.53
2023-02-25T16:53:01.625Z,9.40
2023-02-25T16:55:39.893Z,6.37
2023-02-25T16:58:21.859Z,4.30
2023-02-25T17:00:52.669Z,8.37
2023-02-25T17:03:22.110Z,11.73
2023-02-25T17:06:02.316Z,7.00
2023-02-25T17:08:30.690Z,6.30
2023-02-25T17:11:02.637Z,7.10
2023-02-25T17:13:35.127Z,4.67
2023-02-25T17:16:05.177Z,7.83
2023-02-25T17:18:35.917Z,5.37
2023-02-25T17:21:07.637Z,8.37
2023-02-25T17:23:41.288Z,9.60
2023-02-25T17:26:13.755Z,9.60
2023-02-25T17:28:45.108Z,9.90
2023-02-25T17:31:15.658Z,7.53
2023-02-25T17:33:49.470Z,4.30
2023-02-25T17:36:20.568Z,6.57
2023-02-25T17:38:51.290Z,11.20
2023-02-25T17:41:22.362Z,12.33
2023-02-25T17:43:50.905Z,6.57
2023-02-25T17:46:28.488Z,5.33
2023-02-25T17:48:59.480Z,9.30
2023-02-25T17:51:33.757Z,9.93
2023-02-25T17:54:07.595Z,8.53
2023-02-25T17:56:38.153Z,9.97
2023-02-25T17:59:09.294Z,10.40
2023-02-25T18:01:49.744Z,7.37
2023-02-25T18:04:27.246Z,5.27
2023-02-25T18:06:56.332Z,8.90
2023-02-25T18:09:41.075Z,5.90
2023-02-25T18:12:23.611Z,10.17
2023-02-25T18:14:56.549Z,8.43
2023-02-25T18:17:28.272Z,6.63
2023-02-25T18:19:58.558Z,7.80
2023-02-25T18:22:33.651Z,7.13
2023-02-25T18:25:04.540Z,8.70
2023-02-25T18:27:37.853Z,8.73
2023-02-25T18:30:18.778Z,7.43
2023-02-25T18:32:47.965Z,9.60
2023-02-25T18:35:16.474Z,5.70
2023-02-25T18:37:46.344Z,7.87
2023-02-25T18:40:18.053Z,9.50
2023-02-25T18:42:47.729Z,9.97
2023-02-25T18:45:17.775Z,7.03
2023-02-25T18:47:46.420Z,10.30
2023-02-25T18:50:15.145Z,6.07
2023-02-25T18:52:43.476Z,8.47
2023-02-25T18:55:20.030Z,11.17
2023-02-25T18:57:49.891Z,8.53
2023-02-25T19:00:21.141Z,11.43
2023-02-25T19:02:51.443Z,8.43
2023-02-25T19:05:21.208Z,10.97
2023-02-25T19:07:50.598Z,6.43
2023-02-25T19:10:21.420Z,6.07
2023-02-25T19:12:52.936Z,6.43
2023-02-25T19:15:22.774Z,9.63
2023-02-25T19:17:51.189Z,8.57
2023-02-25T19:20:21.100Z,9.83
2023-02-25T19:22:51.107Z,10.77
2023-02-25T19:25:23.239Z,9.10
2023-02-25T19:27:54.149Z,8.57
2023-02-25T19:30:24.915Z,7.67
2023-02-25T19:32:53.724Z,9.07
2023-02-25T19:35:22.224Z,10.77
2023-02-25T19:37:50.508Z,9.20
2023-02-25T19:40:18.896Z,9.30
2023-02-25T19:42:48.944Z,11.90
2023-02-25T19:45:20.649Z,6.03
2023-02-25T19:47:51.269Z,11.87
2023-02-25T19:50:21.480Z,8.67
2023-02-25T19:52:49.783Z,9.27
2023-02-25T19:55:19.148Z,15.43
2023-02-25T19:57:48.281Z,9.00
2023-02-25T20:00:23.776Z,13.37
2023-02-25T20:02:53.890Z,8.70
2023-02-25T20:05:23.068Z,11.00
2023-02-25T20:07:51.795Z,10.13
2023-02-25T20:10:21.864Z,12.90
2023-02-25T20:12:50.521Z,12.33
2023-02-25T20:15:19.241Z,9.53
2023-02-25T20:17:49.299Z,9.47
2023-02-25T20:20:18.001Z,10.83
2023-02-25T20:22:46.305Z,11.63
2023-02-25T20:25:15.210Z,17.47
2023-02-25T20:27:43.845Z,14.37
2023-02-25T20:30:14.703Z,19.13
2023-02-25T20:32:44.071Z,19.00
2023-02-25T20:35:18.161Z,20.53
2023-02-25T20:37:57.018Z,24.00
2023-02-25T20:40:26.175Z,41.53
2023-02-25T20:42:54.724Z,45.57
2023-02-25T20:45:23.444Z,40.43
2023-02-25T20:47:52.104Z,41.50
2023-02-25T20:50:26.506Z,26.33
2023-02-25T20:52:55.476Z,41.83
2023-02-25T20:55:23.792Z,39.10
2023-02-25T20:57:52.749Z,37.10
2023-02-25T21:00:22.273Z,41.37
2023-02-25T21:02:50.554Z,28.00
2023-02-25T21:05:18.824Z,29.00
2023-02-25T21:07:48.787Z,20.33
2023-02-25T21:10:17.806Z,21.60
2023-02-25T21:12:46.099Z,16.27
2023-02-25T21:15:16.074Z,12.97
2023-02-25T21:17:44.383Z,12.97
2023-02-25T21:20:13.424Z,14.37
2023-02-25T21:22:41.817Z,11.17
2023-02-25T21:25:11.768Z,9.97
2023-02-25T21:27:40.511Z,10.23
2023-02-25T21:30:10.001Z,8.63
2023-02-25T21:32:39.210Z,12.07
2023-02-25T21:35:07.860Z,6.50
2023-02-25T21:37:36.117Z,10.33
2023-02-25T21:40:05.138Z,8.23
2023-02-25T21:42:35.017Z,10.37
2023-02-25T21:45:03.950Z,11.70
2023-02-25T21:47:32.365Z,10.13
2023-02-25T21:50:00.598Z,11.43
2023-02-25T21:52:28.844Z,8.00
2023-02-25T21:54:57.154Z,9.43
2023-02-25T21:57:25.414Z,5.23
2023-02-25T21:59:55.248Z,8.00
2023-02-25T22:02:24.852Z,5.40
2023-02-25T22:04:53.111Z,8.67
2023-02-25T22:07:21.424Z,7.67
2023-02-25T22:09:49.717Z,6.67
2023-02-25T22:12:17.948Z,7.60
2023-02-25T22:14:46.316Z,13.70
2023-02-25T22:17:16.010Z,8.40
2023-02-25T22:19:44.386Z,9.90
2023-02-25T22:22:14.138Z,8.50
2023-02-25T22:24:43.195Z,6.53
2023-02-25T22:27:11.429Z,7.83
2023-02-25T22:29:40.148Z,8.27
2023-02-25T22:32:08.517Z,11.87
2023-02-25T22:34:38.186Z,17.00
2023-02-25T22:37:06.434Z,17.23
2023-02-25T22:39:34.653Z,18.83
2023-02-25T22:42:02.947Z,12.80
2023-02-25T22:44:31.259Z,15.20
2023-02-25T22:46:59.550Z,10.83
2023-02-25T22:49:27.800Z,9.37
2023-02-25T22:51:57.436Z,9.23
2023-02-25T22:54:25.746Z,10.63
2023-02-25T22:56:54.035Z,11.20
2023-02-25T22:59:22.656Z,13.17
2023-02-25T23:01:50.997Z,8.60
2023-02-25T23:04:19.295Z,8.10
2023-02-25T23:06:47.810Z,12.40
2023-02-25T23:09:17.576Z,10.33
2023-02-25T23:11:45.948Z,10.67
2023-02-25T23:14:15.286Z,12.60
2023-02-25T23:16:44.973Z,11.73
2023-02-25T23:19:15.739Z,12.73
2023-02-25T23:21:44.981Z,8.83
2023-02-25T23:24:16.517Z,13.43
2023-02-25T23:26:47.517Z,8.33
2023-02-25T23:29:15.828Z,11.03
2023-02-25T23:31:45.763Z,12.63
2023-02-25T23:34:15.933Z,11.73
2023-02-25T23:36:45.181Z,11.80
2023-02-25T23:39:15.944Z,9.57
2023-02-25T23:41:46.020Z,8.60
2023-02-25T23:44:15.690Z,10.43
2023-02-25T23:46:45.114Z,8.07
2023-02-25T23:49:14.960Z,8.13
2023-02-25T23:51:44.665Z,8.23
2023-02-25T23:54:15.457Z,12.47
2023-02-25T23:56:43.812Z,10.77
2023-02-25T23:59:13.933Z,8.87
